Time;durP1;ratioP1;P1;durP2;ratioP2;P2;SDS_P1;SDS_P2;PMS_P1;PMS_P2;Temp;Humidity;BMP_temperature;BMP_pressure;BME280_temperature;BME280_humidity;BME280_pressure;Samples;Min_cycle;Max_cycle;Signal;HPM_P1;HPM_P2
2023/11/15 07:08:34;;;;;;;14.30;10.05;;;;;;;;;;5866404;23;20235;-87
2023/11/15 10:28:34;;;;;;;3.70;2.35;;;;;;;;;;5211033;23;20044;-83
2023/11/15 10:31:04;;;;;;;2.67;2.28;;;;;;;;;;4956951;28;20114;-87
2023/11/15 10:33:31;;;;;;;3.65;2.40;;;;;;;;;;4957029;28;20027;-86
2023/11/15 10:36:15;;;;;;;2.63;2.42;;;;;;;;;;4945708;29;20031;-89
2023/11/15 10:38:50;;;;;;;2.65;2.40;;;;;;;;;;4936635;29;20086;-89
2023/11/15 10:41:17;;;;;;;2.17;2.00;;;;;;;;;;4936458;29;20035;-88
2023/11/15 10:43:49;;;;;;;2.30;2.10;;;;;;;;;;4937721;29;20518;-86
2023/11/15 10:46:17;;;;;;;1.85;1.75;;;;;;;;;;4936076;29;20036;-83
2023/11/15 10:48:47;;;;;;;2.10;1.90;;;;;;;;;;4937670;29;20031;-85
2023/11/15 10:51:23;;;;;;;1.75;1.60;;;;;;;;;;4937320;29;20131;-85
2023/11/15 10:53:50;;;;;;;2.58;2.00;;;;;;;;;;4937362;29;20067;-83
2023/11/15 10:56:17;;;;;;;2.67;2.00;;;;;;;;;;4935670;29;20463;-83
2023/11/15 10:58:46;;;;;;;2.22;2.03;;;;;;;;;;4937501;29;20036;-83
2023/11/15 11:01:17;;;;;;;1.50;1.40;;;;;;;;;;4937332;29;20026;-82
2023/11/15 11:03:49;;;;;;;2.88;1.42;;;;;;;;;;4937535;29;20034;-85
2023/11/15 11:06:36;;;;;;;2.00;1.52;;;;;;;;;;4937151;29;20038;-83
2023/11/15 11:09:11;;;;;;;2.13;1.75;;;;;;;;;;4937247;29;20118;-84
2023/11/15 11:11:42;;;;;;;2.38;2.17;;;;;;;;;;4937152;29;20022;-84
2023/11/15 11:14:20;;;;;;;2.03;1.80;;;;;;;;;;4936937;29;20079;-84
2023/11/15 11:16:47;;;;;;;1.88;1.63;;;;;;;;;;4936743;29;20055;-84
2023/11/15 11:19:21;;;;;;;1.88;1.58;;;;;;;;;;4937174;29;20035;-85
2023/11/15 11:22:05;;;;;;;2.45;1.67;;;;;;;;;;4938884;29;20118;-87
2023/11/15 11:24:48;;;;;;;2.30;2.10;;;;;;;;;;4938654;29;20024;-87
2023/11/15 11:27:14;;;;;;;3.08;2.17;;;;;;;;;;4938965;29;20023;-86
2023/11/15 11:30:11;;;;;;;2.88;2.30;;;;;;;;;;4946911;29;20414;-86
2023/11/15 11:32:38;;;;;;;2.40;2.20;;;;;;;;;;4955957;29;20030;-86
2023/11/15 11:37:55;;;;;;;2.25;2.05;;;;;;;;;;4956474;29;20115;-86
2023/11/15 11:40:25;;;;;;;4.15;2.75;;;;;;;;;;4956046;29;20027;-88
2023/11/15 11:42:52;;;;;;;;;;;;;;;;;;4956496;29;20019;-84
2023/11/15 11:45:24;;;;;;;2.38;2.17;;;;;;;;;;4955912;28;19918;-84
2023/11/15 11:47:50;;;;;;;2.08;1.83;;;;;;;;;;4955838;29;20031;-84
2023/11/15 11:50:22;;;;;;;2.15;1.80;;;;;;;;;;4938352;29;20116;-84
2023/11/15 11:52:55;;;;;;;3.03;2.70;;;;;;;;;;4938576;29;20023;-87
2023/11/15 11:55:21;;;;;;;2.17;1.98;;;;;;;;;;4955682;28;20027;-85
2023/11/15 11:57:49;;;;;;;1.95;1.55;;;;;;;;;;4955479;29;20031;-85
2023/11/15 12:00:18;;;;;;;2.45;1.75;;;;;;;;;;4938126;29;20031;-88
2023/11/15 12:02:49;;;;;;;4.45;1.48;;;;;;;;;;4955685;29;20027;-85
2023/11/15 12:05:24;;;;;;;1.95;1.20;;;;;;;;;;4938364;29;20063;-88
2023/11/15 12:07:53;;;;;;;1.65;1.40;;;;;;;;;;4938280;29;20031;-86
2023/11/15 12:10:18;;;;;;;1.42;1.30;;;;;;;;;;4955074;29;20031;-82
2023/11/15 12:12:54;;;;;;;1.35;1.25;;;;;;;;;;4955833;29;20115;-83
2023/11/15 12:15:22;;;;;;;1.50;1.40;;;;;;;;;;4938291;29;20078;-87
2023/11/15 12:17:48;;;;;;;2.45;1.90;;;;;;;;;;4955175;29;20082;-85
2023/11/15 12:20:36;;;;;;;3.08;1.33;;;;;;;;;;4955570;29;20027;-86
2023/11/15 12:23:12;;;;;;;1.40;1.30;;;;;;;;;;4939973;29;20027;-84
2023/11/15 12:25:51;;;;;;;1.30;1.10;;;;;;;;;;4955048;28;20528;-85
2023/11/15 12:28:23;;;;;;;1.90;1.05;;;;;;;;;;4955537;28;20031;-84
2023/11/15 12:30:50;;;;;;;1.70;1.10;;;;;;;;;;4959139;29;20039;-84
2023/11/15 12:33:16;;;;;;;3.78;1.30;;;;;;;;;;4958836;29;20033;-84
2023/11/15 12:35:43;;;;;;;0.98;0.98;;;;;;;;;;4958867;28;20473;-85
2023/11/15 12:38:14;;;;;;;1.23;1.10;;;;;;;;;;4958951;29;20081;-84
2023/11/15 12:40:41;;;;;;;0.95;0.95;;;;;;;;;;4959073;29;20035;-83
2023/11/15 12:43:21;;;;;;;2.35;1.27;;;;;;;;;;4958998;29;20038;-83
2023/11/15 12:46:13;;;;;;;1.30;1.00;;;;;;;;;;4958915;28;20027;-83
2023/11/15 18:29:13;;;;;;;1.73;1.58;;;;;;;;;;5210411;23;20254;-86
2023/11/15 18:31:38;;;;;;;3.58;2.20;;;;;;;;;;4955758;29;20078;-84
2023/11/15 18:34:04;;;;;;;3.83;3.33;;;;;;;;;;4957161;28;20051;-86
2023/11/15 18:36:29;;;;;;;11.73;6.38;;;;;;;;;;4956010;29;20031;-85
2023/11/15 18:38:54;;;;;;;19.88;10.80;;;;;;;;;;4956972;28;20028;-84
2023/11/15 18:41:20;;;;;;;9.85;5.78;;;;;;;;;;4957018;28;20034;-85
2023/11/15 18:43:45;;;;;;;3.83;2.47;;;;;;;;;;4957260;28;20034;-85
2023/11/15 18:46:11;;;;;;;2.80;2.40;;;;;;;;;;4956955;28;20031;-86
2023/11/15 18:48:39;;;;;;;3.00;2.40;;;;;;;;;;4956953;28;20033;-85
2023/11/15 18:51:05;;;;;;;3.17;2.72;;;;;;;;;;4956811;28;20023;-85
2023/11/15 18:53:31;;;;;;;1.33;1.23;;;;;;;;;;4957143;28;20035;-87
2023/11/15 18:55:59;;;;;;;1.50;1.33;;;;;;;;;;4956885;28;20106;-88
2023/11/15 18:58:26;;;;;;;1.10;1.10;;;;;;;;;;4940196;29;20039;-86
2023/11/15 19:00:53;;;;;;;1.30;1.20;;;;;;;;;;4955361;29;20027;-86
2023/11/15 19:03:19;;;;;;;2.08;1.90;;;;;;;;;;4955585;28;20035;-87
2023/11/15 19:05:46;;;;;;;5.38;3.15;;;;;;;;;;4955576;29;20023;-88
2023/11/15 19:08:11;;;;;;;2.92;2.30;;;;;;;;;;4956160;28;20031;-87
2023/11/15 19:10:37;;;;;;;2.47;2.28;;;;;;;;;;4956204;29;20123;-87
2023/11/15 19:13:03;;;;;;;1.65;1.55;;;;;;;;;;4955699;28;20027;-88
2023/11/15 19:15:29;;;;;;;3.53;2.60;;;;;;;;;;4957065;28;20038;-87
2023/11/15 19:17:55;;;;;;;3.13;2.58;;;;;;;;;;4957123;28;20031;-87
2023/11/15 19:20:22;;;;;;;3.45;3.00;;;;;;;;;;4956941;28;20031;-87
2023/11/15 19:22:50;;;;;;;4.05;3.55;;;;;;;;;;4955854;29;20031;-87
2023/11/15 19:25:16;;;;;;;3.35;2.60;;;;;;;;;;4956627;28;20035;-86
2023/11/15 19:27:41;;;;;;;8.38;2.92;;;;;;;;;;4955588;29;20023;-88
2023/11/15 19:30:07;;;;;;;2.55;2.22;;;;;;;;;;4955966;29;20111;-86
2023/11/15 19:32:39;;;;;;;2.65;2.40;;;;;;;;;;4955174;28;20339;-85
2023/11/15 19:35:08;;;;;;;2.30;2.10;;;;;;;;;;4956358;28;20023;-83
2023/11/15 19:37:34;;;;;;;2.70;2.13;;;;;;;;;;4955902;28;20027;-87
2023/11/15 19:40:01;;;;;;;3.10;2.10;;;;;;;;;;4956788;28;20101;-85
2023/11/15 19:42:27;;;;;;;2.80;1.98;;;;;;;;;;4956230;28;20474;-84
2023/11/15 19:44:53;;;;;;;2.88;1.83;;;;;;;;;;4956307;28;20031;-85
2023/11/15 19:47:19;;;;;;;3.50;2.20;;;;;;;;;;4955018;29;20035;-81
2023/11/15 19:49:44;;;;;;;4.82;2.80;;;;;;;;;;4955006;29;20027;-81
2023/11/15 19:52:11;;;;;;;3.50;3.10;;;;;;;;;;4956040;28;20034;-86
2023/11/15 19:54:37;;;;;;;3.33;2.90;;;;;;;;;;4956266;28;20026;-86
2023/11/15 19:57:04;;;;;;;4.70;3.45;;;;;;;;;;4956330;28;20038;-90
2023/11/15 19:59:32;;;;;;;3.95;3.13;;;;;;;;;;4956822;28;20105;-89
2023/11/15 20:02:00;;;;;;;3.35;2.30;;;;;;;;;;4956824;28;20027;-89
2023/11/15 20:04:30;;;;;;;2.92;2.38;;;;;;;;;;4956775;28;20023;-89
2023/11/15 20:06:59;;;;;;;4.97;2.80;;;;;;;;;;4956857;28;20027;-88
2023/11/15 20:09:28;;;;;;;3.28;2.50;;;;;;;;;;4956567;29;20037;-84
2023/11/15 20:11:55;;;;;;;13.55;7.45;;;;;;;;;;4955254;28;20027;-85
2023/11/15 20:14:20;;;;;;;22.10;12.20;;;;;;;;;;4956519;28;20091;-88
2023/11/15 20:16:47;;;;;;;13.45;7.57;;;;;;;;;;4955025;28;20379;-88
2023/11/15 20:19:13;;;;;;;11.75;6.50;;;;;;;;;;4956637;28;20050;-88
2023/11/15 20:21:38;;;;;;;7.03;4.78;;;;;;;;;;4956661;28;20366;-84
2023/11/15 20:24:05;;;;;;;5.32;3.70;;;;;;;;;;4954824;29;20082;-89
2023/11/15 20:26:31;;;;;;;4.00;3.10;;;;;;;;;;4955284;28;20031;-83
2023/11/15 20:28:56;;;;;;;5.60;3.63;;;;;;;;;;4955754;29;20030;-89
2023/11/15 20:31:23;;;;;;;7.28;4.32;;;;;;;;;;4956236;28;20047;-89
2023/11/15 20:33:49;;;;;;;5.10;3.30;;;;;;;;;;4955256;29;20035;-89
2023/11/15 20:36:15;;;;;;;4.55;3.15;;;;;;;;;;4956083;28;20347;-88
2023/11/15 20:38:41;;;;;;;6.78;5.93;;;;;;;;;;4956396;28;20083;-90
2023/11/15 20:41:07;;;;;;;2.15;1.95;;;;;;;;;;4955975;28;20112;-83
2023/11/15 20:43:35;;;;;;;2.08;1.67;;;;;;;;;;4956083;28;20023;-89
2023/11/15 20:46:01;;;;;;;2.30;2.10;;;;;;;;;;4955983;28;20031;-88
2023/11/15 20:48:27;;;;;;;3.17;2.85;;;;;;;;;;4956479;28;20051;-90
2023/11/15 20:50:53;;;;;;;3.30;3.00;;;;;;;;;;4958003;29;20059;-88
2023/11/15 20:53:22;;;;;;;3.08;2.53;;;;;;;;;;4958769;29;20054;-88
2023/11/15 20:55:48;;;;;;;3.90;3.50;;;;;;;;;;4960082;28;20023;-88
2023/11/15 20:58:14;;;;;;;6.57;3.70;;;;;;;;;;4960164;28;20038;-87
2023/11/15 21:00:40;;;;;;;4.10;2.47;;;;;;;;;;4960174;28;20114;-89
2023/11/15 21:03:07;;;;;;;6.32;5.05;;;;;;;;;;4960273;29;20454;-93
2023/11/15 21:05:33;;;;;;;4.03;3.35;;;;;;;;;;4960299;28;20100;-88
2023/11/15 21:07:58;;;;;;;4.68;3.17;;;;;;;;;;4959913;28;20114;-87
2023/11/15 21:10:27;;;;;;;3.80;3.38;;;;;;;;;;4959627;28;20481;-87
2023/11/15 21:12:52;;;;;;;3.42;2.83;;;;;;;;;;4959850;28;20034;-86
2023/11/15 21:15:18;;;;;;;3.25;2.95;;;;;;;;;;4959750;28;20031;-85
2023/11/15 21:17:44;;;;;;;5.13;3.38;;;;;;;;;;4959450;28;20031;-87
2023/11/15 21:20:11;;;;;;;3.25;2.92;;;;;;;;;;4959093;28;20031;-90
2023/11/15 21:22:39;;;;;;;3.73;3.13;;;;;;;;;;4959730;28;20035;-85
2023/11/15 21:25:11;;;;;;;4.47;3.53;;;;;;;;;;4959857;28;20039;-83
2023/11/15 21:27:38;;;;;;;4.70;2.92;;;;;;;;;;4959994;28;20035;-84
2023/11/15 21:30:05;;;;;;;5.45;3.28;;;;;;;;;;4958739;29;20095;-80
2023/11/15 21:32:30;;;;;;;3.75;2.78;;;;;;;;;;4959281;28;20032;-87
2023/11/15 21:34:56;;;;;;;3.92;2.13;;;;;;;;;;4958692;28;20023;-86
2023/11/15 21:37:22;;;;;;;1.92;1.70;;;;;;;;;;4958453;28;20023;-86
2023/11/15 21:39:48;;;;;;;2.97;2.22;;;;;;;;;;4958591;28;20038;-87
2023/11/15 21:42:13;;;;;;;3.05;1.83;;;;;;;;;;4958477;28;20382;-87
2023/11/15 21:44:41;;;;;;;4.43;2.55;;;;;;;;;;4958618;28;20106;-82
2023/11/15 21:47:06;;;;;;;3.22;2.90;;;;;;;;;;4957064;29;20027;-84
2023/11/15 21:49:32;;;;;;;4.93;3.00;;;;;;;;;;4958639;28;20039;-86
2023/11/15 21:51:57;;;;;;;6.25;2.80;;;;;;;;;;4959016;28;20027;-87
2023/11/15 21:54:24;;;;;;;3.08;2.78;;;;;;;;;;4958242;28;20047;-86
2023/11/15 21:56:49;;;;;;;4.65;3.00;;;;;;;;;;4958059;28;20034;-86
2023/11/15 21:59:15;;;;;;;3.42;2.88;;;;;;;;;;4959156;28;20027;-86
2023/11/15 22:01:40;;;;;;;3.22;2.70;;;;;;;;;;4960767;28;20015;-87
2023/11/15 22:04:06;;;;;;;2.55;2.30;;;;;;;;;;4961462;28;20031;-87
2023/11/15 22:06:33;;;;;;;3.38;2.20;;;;;;;;;;4961125;28;20086;-86
2023/11/15 22:08:58;;;;;;;3.45;2.15;;;;;;;;;;4958348;28;20055;-86
2023/11/15 22:11:24;;;;;;;3.25;2.10;;;;;;;;;;4957180;29;20019;-87
2023/11/15 22:13:49;;;;;;;2.00;1.90;;;;;;;;;;4957932;28;20022;-87
2023/11/15 22:16:15;;;;;;;3.90;1.80;;;;;;;;;;4957775;28;20031;-85
2023/11/15 22:18:40;;;;;;;4.00;1.70;;;;;;;;;;4957776;28;20024;-87
2023/11/15 22:21:06;;;;;;;2.90;2.30;;;;;;;;;;4957986;29;20397;-87
2023/11/15 22:23:32;;;;;;;2.80;2.13;;;;;;;;;;4958020;28;20027;-86
2023/11/15 22:25:58;;;;;;;2.60;2.40;;;;;;;;;;4957986;28;20090;-86
2023/11/15 22:28:26;;;;;;;2.17;1.60;;;;;;;;;;4957859;28;20532;-87
2023/11/15 22:30:52;;;;;;;2.00;1.90;;;;;;;;;;4957603;28;20055;-86
2023/11/15 22:33:18;;;;;;;1.67;1.58;;;;;;;;;;4957654;28;20031;-86
2023/11/15 22:35:48;;;;;;;1.25;1.15;;;;;;;;;;4957576;28;20114;-86
2023/11/15 22:38:14;;;;;;;1.35;1.25;;;;;;;;;;4957717;28;20035;-82
2023/11/15 22:40:40;;;;;;;1.75;1.30;;;;;;;;;;4957484;28;20023;-83
2023/11/15 22:43:05;;;;;;;2.55;1.70;;;;;;;;;;4957210;28;20102;-83
2023/11/15 22:45:31;;;;;;;2.15;1.73;;;;;;;;;;4957537;28;20488;-83
2023/11/15 22:47:57;;;;;;;2.33;1.90;;;;;;;;;;4956022;29;20533;-85
2023/11/15 22:50:23;;;;;;;3.35;2.08;;;;;;;;;;4957113;28;20023;-86
2023/11/15 22:52:48;;;;;;;1.85;1.75;;;;;;;;;;4956104;29;20027;-85
2023/11/15 22:55:14;;;;;;;3.00;1.92;;;;;;;;;;4956165;29;20066;-85
2023/11/15 22:57:39;;;;;;;2.92;2.15;;;;;;;;;;4955751;29;20038;-86
2023/11/15 23:00:05;;;;;;;2.88;2.38;;;;;;;;;;4957327;28;20754;-86
2023/11/15 23:02:32;;;;;;;2.50;2.30;;;;;;;;;;4957133;28;20023;-86
2023/11/15 23:04:57;;;;;;;2.20;2.00;;;;;;;;;;4957187;28;20042;-85
2023/11/15 23:07:23;;;;;;;2.33;1.88;;;;;;;;;;4956908;28;20023;-86
2023/11/15 23:09:49;;;;;;;3.72;2.20;;;;;;;;;;4956647;28;20050;-86
2023/11/15 23:12:14;;;;;;;2.33;1.85;;;;;;;;;;4956434;28;20034;-81
2023/11/15 23:14:40;;;;;;;2.22;1.88;;;;;;;;;;4955657;29;20028;-85
2023/11/15 23:17:05;;;;;;;2.05;1.63;;;;;;;;;;4956357;28;20115;-85
2023/11/15 23:19:31;;;;;;;1.67;1.58;;;;;;;;;;4955543;29;20035;-84
